Damazin Airport


Codes: HSDZ/RSS
Name: Damazin Airport
City: Ad Damazin
Country: Sudan
Elevation: 1582 ft.
Wikipedia:

Photos at Damazin Airport


   Photos courtesy of SpottingLog. You can add your own sightings and photos by signing up for a free trial today.



No photos found.

Weather at Damazin Airport


Time (UTC)DescriptionTempratureWindCloud coverageVisibilityPressureHumidity
25-Jun-2024 12:00Overcast Clouds32°C9 mph, SW99%10000m1008hPa45%
25-Jun-2024 15:00Overcast Clouds32°C9 mph, W99%10000m1008hPa45%
25-Jun-2024 18:00Broken Clouds30°C7 mph, SW84%10000m1008hPa55%
25-Jun-2024 21:00Overcast Clouds28°C4 mph, S100%10000m1009hPa62%
26-Jun-2024 00:00Overcast Clouds27°C13 mph, SE100%10000m1008hPa69%
26-Jun-2024 03:00Overcast Clouds25°C16 mph, S100%10000m1008hPa73%
26-Jun-2024 06:00Overcast Clouds28°C13 mph, S100%10000m1009hPa59%
26-Jun-2024 09:00Overcast Clouds33°C9 mph, S95%10000m1008hPa40%
26-Jun-2024 12:00Broken Clouds34°C9 mph, SE81%10000m1006hPa37%
26-Jun-2024 15:00Overcast Clouds34°C11 mph, SW100%10000m1006hPa40%
26-Jun-2024 18:00Overcast Clouds30°C7 mph, S85%10000m1007hPa50%
26-Jun-2024 21:00Overcast Clouds28°C9 mph, SE100%10000m1008hPa58%
27-Jun-2024 00:00Light Rain25°C16 mph, SE100%10000m1009hPa75%
27-Jun-2024 03:00Overcast Clouds24°C18 mph, SE100%10000m1009hPa79%
27-Jun-2024 06:00Overcast Clouds27°C18 mph, SE100%10000m1009hPa61%
27-Jun-2024 09:00Overcast Clouds29°C11 mph, S100%10000m1009hPa55%
27-Jun-2024 12:00Overcast Clouds33°C13 mph, S99%10000m1008hPa39%
27-Jun-2024 15:00Overcast Clouds30°C13 mph, SW100%10000m1008hPa49%
27-Jun-2024 18:00Overcast Clouds27°C9 mph, S100%10000m1010hPa60%
27-Jun-2024 21:00Light Rain26°C11 mph, S100%10000m1012hPa66%
28-Jun-2024 00:00Light Rain26°C13 mph, S100%10000m1010hPa68%
28-Jun-2024 03:00Overcast Clouds26°C13 mph, S100%10000m1010hPa66%
28-Jun-2024 06:00Overcast Clouds29°C13 mph, S100%10000m1011hPa50%
28-Jun-2024 09:00Broken Clouds32°C13 mph, S76%10000m1010hPa40%
28-Jun-2024 12:00Broken Clouds35°C9 mph, SW79%10000m1007hPa32%
28-Jun-2024 15:00Overcast Clouds34°C9 mph, SW98%10000m1007hPa34%
28-Jun-2024 18:00Light Rain30°C7 mph, S95%10000m1009hPa47%
28-Jun-2024 21:00Light Rain28°C4 mph, SE99%10000m1011hPa59%
29-Jun-2024 00:00Light Rain24°C16 mph, SE100%10000m1012hPa80%
29-Jun-2024 03:00Light Rain24°C13 mph, S100%10000m1011hPa79%
29-Jun-2024 06:00Overcast Clouds26°C11 mph, S100%10000m1011hPa65%
29-Jun-2024 09:00Overcast Clouds30°C11 mph, SW100%10000m1011hPa49%
29-Jun-2024 12:00Overcast Clouds33°C9 mph, SW100%10000m1008hPa39%
29-Jun-2024 15:00Overcast Clouds33°C9 mph, W100%10000m1008hPa40%
29-Jun-2024 18:00Overcast Clouds28°C7 mph, SE100%10000m1009hPa58%
29-Jun-2024 21:00Overcast Clouds27°C9 mph, S96%10000m1011hPa64%
30-Jun-2024 00:00Light Rain26°C9 mph, S98%10000m1011hPa72%
30-Jun-2024 03:00Overcast Clouds24°C13 mph, SE100%10000m1011hPa76%
30-Jun-2024 06:00Overcast Clouds26°C11 mph, S100%10000m1012hPa69%
30-Jun-2024 09:00Overcast Clouds30°C13 mph, S100%10000m1011hPa51%